Time,TemperatureF,DewpointF,PressureIn,WindDirection,WindDirectionDegrees,WindSpeedMPH,WindSpeedGustMPH,Humidity,HourlyPrecipIn,Conditions,Clouds,dailyrainin,SoftwareType,DateUTC
2013-01-30 00:04:00,43.3,41.7,29.99,South,175,6.0,10.0,94,0.00,,,0.00,Wunderground v.1.15,2013-01-30 05:04:00,
2013-01-30 00:10:00,43.2,41.6,29.98,South,184,6.0,6.0,94,0.00,,,0.00,Wunderground v.1.15,2013-01-30 05:10:00,
2013-01-30 00:15:00,43.1,41.5,29.98,South,184,6.0,6.0,94,0.00,,,0.00,Wunderground v.1.15,2013-01-30 05:15:00,
2013-01-30 00:20:00,43.0,41.4,29.98,SSW,198,6.0,6.0,94,0.00,,,0.00,Wunderground v.1.15,2013-01-30 05:20:00,
2013-01-30 00:25:00,43.0,41.4,29.98,SSE,161,5.0,6.0,94,0.00,,,0.00,Wunderground v.1.15,2013-01-30 05:25:00,
2013-01-30 00:30:00,42.9,41.3,29.98,South,174,5.0,5.0,94,0.00,,,0.00,Wunderground v.1.15,2013-01-30 05:30:00,
2013-01-30 00:35:00,42.9,41.3,29.98,South,176,5.0,5.0,94,0.00,,,0.00,Wunderground v.1.15,2013-01-30 05:35:00,
2013-01-30 00:45:00,42.9,41.3,29.97,SSW,193,4.0,5.0,94,0.00,,,0.00,Wunderground v.1.15,2013-01-30 05:45:00,
2013-01-30 00:50:00,42.9,41.3,29.97,SSW,193,4.0,6.0,94,0.00,,,0.00,Wunderground v.1.15,2013-01-30 05:50:00,
2013-01-30 00:55:00,42.9,41.3,29.97,South,171,5.0,6.0,94,0.00,,,0.00,Wunderground v.1.15,2013-01-30 05:55:00,
2013-01-30 01:00:00,43.0,41.4,29.97,South,182,5.0,5.0,94,0.00,,,0.00,Wunderground v.1.15,2013-01-30 06:00:00,
2013-01-30 01:05:00,43.0,41.4,29.96,SSW,203,5.0,6.0,94,0.00,,,0.00,Wunderground v.1.15,2013-01-30 06:05:00,
2013-01-30 01:14:00,43.3,42.0,29.96,SSE,157,5.0,7.0,95,0.00,,,0.00,Wunderground v.1.15,2013-01-30 06:14:00,
2013-01-30 01:20:00,43.4,42.1,29.96,SSW,203,6.0,6.0,95,0.00,,,0.00,Wunderground v.1.15,2013-01-30 06:20:00,
2013-01-30 01:25:00,43.4,42.1,29.96,South,180,6.0,6.0,95,0.00,,,0.00,Wunderground v.1.15,2013-01-30 06:25:00,
2013-01-30 01:30:00,43.4,42.1,29.96,SSE,167,6.0,6.0,95,0.00,,,0.00,Wunderground v.1.15,2013-01-30 06:30:00,
2013-01-30 01:35:00,43.4,42.1,29.95,SSW,193,5.0,6.0,95,0.00,,,0.00,Wunderground v.1.15,2013-01-30 06:35:00,
2013-01-30 01:40:00,43.3,42.0,29.95,SE,133,5.0,6.0,95,0.00,,,0.00,Wunderground v.1.15,2013-01-30 06:40:00,
2013-01-30 01:50:00,43.2,41.9,29.95,SSE,153,5.0,7.0,95,0.00,,,0.00,Wunderground v.1.15,2013-01-30 06:50:00,
2013-01-30 01:55:00,43.2,41.9,29.94,SSW,193,5.0,7.0,95,0.00,,,0.00,Wunderground v.1.15,2013-01-30 06:55:00,
2013-01-30 02:00:00,43.2,41.9,29.94,South,171,5.0,9.0,95,0.00,,,0.00,Wunderground v.1.15,2013-01-30 07:00:00,
2013-01-30 02:05:00,43.2,41.9,29.94,South,185,6.0,9.0,95,0.00,,,0.00,Wunderground v.1.15,2013-01-30 07:05:00,
2013-01-30 02:10:00,43.1,41.8,29.93,South,186,5.0,6.0,95,0.00,,,0.00,Wunderground v.1.15,2013-01-30 07:10:00,
2013-01-30 02:15:00,43.0,41.7,29.93,South,182,5.0,6.0,95,0.00,,,0.00,Wunderground v.1.15,2013-01-30 07:15:00,
2013-01-30 02:24:00,42.9,41.6,29.93,South,173,5.0,6.0,95,0.00,,,0.00,Wunderground v.1.15,2013-01-30 07:24:00,
2013-01-30 02:30:00,42.9,41.6,29.93,SSW,213,5.0,5.0,95,0.00,,,0.00,Wunderground v.1.15,2013-01-30 07:30:00,
2013-01-30 02:35:00,43.0,41.7,29.93,SSE,161,5.0,5.0,95,0.00,,,0.00,Wunderground v.1.15,2013-01-30 07:35:00,
2013-01-30 02:40:00,43.1,41.8,29.92,South,186,5.0,5.0,95,0.00,,,0.00,Wunderground v.1.15,2013-01-30 07:40:00,
2013-01-30 02:45:00,43.1,41.8,29.92,South,188,5.0,5.0,95,0.00,,,0.00,Wunderground v.1.15,2013-01-30 07:45:00,
2013-01-30 02:50:00,43.2,41.9,29.92,SSW,213,5.0,5.0,95,0.00,,,0.00,Wunderground v.1.15,2013-01-30 07:50:00,
2013-01-30 02:55:00,43.3,42.0,29.93,South,185,5.0,5.0,95,0.00,,,0.00,Wunderground v.1.15,2013-01-30 07:55:00,
2013-01-30 03:05:00,43.7,42.4,29.92,South,186,4.0,5.0,95,0.00,,,0.00,Wunderground v.1.15,2013-01-30 08:05:00,
2013-01-30 03:10:00,43.8,42.5,29.92,South,177,4.0,6.0,95,0.00,,,0.00,Wunderground v.1.15,2013-01-30 08:10:00,
2013-01-30 03:15:00,43.8,42.5,29.92,SSW,198,4.0,6.0,95,0.00,,,0.00,Wunderground v.1.15,2013-01-30 08:15:00,
2013-01-30 03:20:00,43.9,42.6,29.91,South,184,5.0,5.0,95,0.00,,,0.00,Wunderground v.1.15,2013-01-30 08:20:00,
2013-01-30 03:25:00,43.8,42.5,29.91,South,188,4.0,6.0,95,0.00,,,0.00,Wunderground v.1.15,2013-01-30 08:25:00,
2013-01-30 03:30:00,43.8,42.5,29.90,SE,139,4.0,4.0,95,0.00,,,0.00,Wunderground v.1.15,2013-01-30 08:30:00,
2013-01-30 03:40:00,43.8,42.5,29.90,South,179,5.0,5.0,95,0.00,,,0.00,Wunderground v.1.15,2013-01-30 08:40:00,
2013-01-30 03:45:00,43.8,42.5,29.90,SSE,167,5.0,5.0,95,0.00,,,0.00,Wunderground v.1.15,2013-01-30 08:45:00,
2013-01-30 03:50:00,43.8,42.5,29.89,South,175,5.0,5.0,95,0.00,,,0.00,Wunderground v.1.15,2013-01-30 08:50:00,
2013-01-30 03:55:00,43.8,42.5,29.89,South,180,5.0,5.0,95,0.00,,,0.00,Wunderground v.1.15,2013-01-30 08:55:00,
2013-01-30 04:00:00,43.8,42.5,29.89,South,182,5.0,5.0,95,0.00,,,0.00,Wunderground v.1.15,2013-01-30 09:00:00,
2013-01-30 04:10:00,43.7,42.4,29.88,SSE,168,4.0,4.0,95,0.00,,,0.00,Wunderground v.1.15,2013-01-30 09:10:00,
2013-01-30 04:55:00,46.8,45.7,29.87,South,187,4.0,5.0,96,0.00,,,0.00,Wunderground v.1.15,2013-01-30 09:55:00,
2013-01-30 05:00:00,46.9,45.8,29.87,SSE,166,4.0,6.0,96,0.00,,,0.00,Wunderground v.1.15,2013-01-30 10:00:00,
2013-01-30 05:10:00,47.2,46.1,29.86,South,180,5.0,5.0,96,0.00,,,0.00,Wunderground v.1.15,2013-01-30 10:10:00,
2013-01-30 05:15:00,47.1,46.0,29.86,SSW,193,5.0,5.0,96,0.00,,,0.00,Wunderground v.1.15,2013-01-30 10:15:00,
2013-01-30 05:20:00,47.0,45.9,29.86,SSW,208,5.0,5.0,96,0.00,,,0.00,Wunderground v.1.15,2013-01-30 10:20:00,
2013-01-30 05:25:00,47.0,45.9,29.86,SSE,149,5.0,5.0,96,0.00,,,0.00,Wunderground v.1.15,2013-01-30 10:25:00,
2013-01-30 05:30:00,47.0,45.9,29.86,South,188,5.0,5.0,96,0.00,,,0.00,Wunderground v.1.15,2013-01-30 10:30:00,
2013-01-30 05:40:00,47.3,46.2,29.86,South,181,5.0,5.0,96,0.00,,,0.00,Wunderground v.1.15,2013-01-30 10:40:00,
2013-01-30 05:45:00,47.4,46.3,29.86,SSW,212,6.0,6.0,96,0.00,,,0.00,Wunderground v.1.15,2013-01-30 10:45:00,
2013-01-30 05:50:00,47.4,46.3,29.86,SSW,193,6.0,6.0,96,0.00,,,0.00,Wunderground v.1.15,2013-01-30 10:50:00,
2013-01-30 05:55:00,47.1,46.0,29.86,South,181,5.0,6.0,96,0.00,,,0.00,Wunderground v.1.15,2013-01-30 10:55:00,
2013-01-30 06:00:00,46.8,45.7,29.86,SW,220,5.0,5.0,96,0.00,,,0.00,Wunderground v.1.15,2013-01-30 11:00:00,
2013-01-30 06:05:00,46.5,45.1,29.86,South,178,5.0,8.0,95,0.00,,,0.00,Wunderground v.1.15,2013-01-30 11:05:00,
2013-01-30 06:15:00,46.2,44.8,29.85,South,188,4.0,5.0,95,0.00,,,0.00,Wunderground v.1.15,2013-01-30 11:15:00,
2013-01-30 06:30:00,46.0,44.9,29.84,SSE,168,5.0,6.0,96,0.00,,,0.00,Wunderground v.1.15,2013-01-30 11:30:00,
2013-01-30 06:35:00,45.9,44.8,29.84,SSE,166,5.0,6.0,96,0.00,,,0.00,Wunderground v.1.15,2013-01-30 11:35:00,
2013-01-30 06:40:00,45.8,44.4,29.84,South,189,4.0,6.0,95,0.00,,,0.00,Wunderground v.1.15,2013-01-30 11:40:00,
2013-01-30 07:10:00,46.0,44.9,29.81,SE,134,6.0,7.0,96,0.00,,,0.00,Wunderground v.1.15,2013-01-30 12:10:00,
2013-01-30 07:15:00,46.2,45.1,29.82,SSE,166,6.0,7.0,96,0.00,,,0.00,Wunderground v.1.15,2013-01-30 12:15:00,
2013-01-30 07:30:00,47.9,47.1,29.82,SSE,163,6.0,6.0,97,0.00,,,0.00,Wunderground v.1.15,2013-01-30 12:30:00,
2013-01-30 07:35:00,48.5,47.7,29.82,South,184,6.0,6.0,97,0.00,,,0.00,Wunderground v.1.15,2013-01-30 12:35:00,
2013-01-30 07:45:00,49.3,48.2,29.83,South,173,5.0,6.0,96,0.00,,,0.00,Wunderground v.1.15,2013-01-30 12:45:00,
2013-01-30 07:50:00,50.0,49.2,29.83,South,182,4.0,4.0,97,0.00,,,0.00,Wunderground v.1.15,2013-01-30 12:50:00,
2013-01-30 07:55:00,50.7,49.9,29.83,South,183,3.0,4.0,97,0.00,,,0.00,Wunderground v.1.15,2013-01-30 12:55:00,
2013-01-30 08:00:00,51.3,50.5,29.83,South,177,4.0,4.0,97,0.00,,,0.00,Wunderground v.1.15,2013-01-30 13:00:00,
2013-01-30 08:05:00,51.0,50.2,29.83,South,189,4.0,4.0,97,0.00,,,0.00,Wunderground v.1.15,2013-01-30 13:05:00,
2013-01-30 08:10:00,50.1,49.0,29.83,South,169,5.0,5.0,96,0.00,,,0.00,Wunderground v.1.15,2013-01-30 13:10:00,
2013-01-30 08:19:00,48.8,47.7,29.83,South,180,5.0,5.0,96,0.00,,,0.00,Wunderground v.1.15,2013-01-30 13:19:00,
2013-01-30 08:25:00,48.3,47.2,29.83,South,186,5.0,5.0,96,0.00,,,0.00,Wunderground v.1.15,2013-01-30 13:25:00,
2013-01-30 08:30:00,48.0,46.9,29.82,SSW,193,4.0,4.0,96,0.00,,,0.00,Wunderground v.1.15,2013-01-30 13:30:00,
2013-01-30 08:35:00,47.9,46.8,29.82,South,172,5.0,6.0,96,0.00,,,0.00,Wunderground v.1.15,2013-01-30 13:35:00,
2013-01-30 08:40:00,47.8,46.7,29.82,SSW,198,5.0,5.0,96,0.00,,,0.00,Wunderground v.1.15,2013-01-30 13:40:00,
2013-01-30 08:50:00,47.8,46.7,29.82,SSW,208,5.0,5.0,96,0.00,,,0.00,Wunderground v.1.15,2013-01-30 13:50:00,
2013-01-30 08:55:00,48.0,46.9,29.82,South,177,4.0,5.0,96,0.00,,,0.00,Wunderground v.1.15,2013-01-30 13:55:00,
2013-01-30 09:00:00,48.3,47.2,29.82,South,174,4.0,4.0,96,0.00,,,0.00,Wunderground v.1.15,2013-01-30 14:00:00,
2013-01-30 09:05:00,48.3,47.2,29.82,South,176,4.0,4.0,96,0.00,,,0.00,Wunderground v.1.15,2013-01-30 14:05:00,
2013-01-30 09:15:00,48.0,46.9,29.81,South,183,3.0,4.0,96,0.00,,,0.00,Wunderground v.1.15,2013-01-30 14:15:00,
2013-01-30 09:19:00,47.8,46.7,29.81,SSW,193,3.0,6.0,96,0.00,,,0.00,Wunderground v.1.15,2013-01-30 14:19:00,
2013-01-30 09:25:00,47.8,46.7,29.80,South,182,4.0,8.0,96,0.00,,,0.00,Wunderground v.1.15,2013-01-30 14:25:00,
2013-01-30 09:30:00,48.0,46.9,29.81,SW,232,5.0,5.0,96,0.00,,,0.00,Wunderground v.1.15,2013-01-30 14:30:00,
2013-01-30 09:35:00,48.2,47.1,29.80,SSW,193,5.0,8.0,96,0.00,,,0.00,Wunderground v.1.15,2013-01-30 14:35:00,
2013-01-30 09:40:00,48.3,47.2,29.80,SSW,193,6.0,6.0,96,0.00,,,0.00,Wunderground v.1.15,2013-01-30 14:40:00,
2013-01-30 09:50:00,48.8,48.0,29.80,South,184,6.0,6.0,97,0.00,,,0.00,Wunderground v.1.15,2013-01-30 14:50:00,
2013-01-30 09:55:00,49.3,48.2,29.81,South,172,6.0,7.0,96,0.00,,,0.00,Wunderground v.1.15,2013-01-30 14:55:00,
2013-01-30 10:00:00,49.7,48.9,29.80,South,177,7.0,7.0,97,0.00,,,0.00,Wunderground v.1.15,2013-01-30 15:00:00,
2013-01-30 10:05:00,50.0,49.2,29.80,SSE,153,7.0,7.0,97,0.00,,,0.00,Wunderground v.1.15,2013-01-30 15:05:00,
2013-01-30 10:10:00,50.3,49.5,29.79,South,188,7.0,7.0,97,0.00,,,0.00,Wunderground v.1.15,2013-01-30 15:10:00,
2013-01-30 10:15:00,50.8,50.0,29.79,South,174,6.0,7.0,97,0.00,,,0.00,Wunderground v.1.15,2013-01-30 15:15:00,
2013-01-30 10:25:00,51.5,50.4,29.77,South,189,6.0,7.0,96,0.00,,,0.00,Wunderground v.1.15,2013-01-30 15:25:00,
2013-01-30 10:29:00,52.6,51.8,29.76,South,175,6.0,10.0,97,0.00,,,0.00,Wunderground v.1.15,2013-01-30 15:29:00,
2013-01-30 10:35:00,53.8,53.0,29.76,South,174,6.0,10.0,97,0.00,,,0.00,Wunderground v.1.15,2013-01-30 15:35:00,
2013-01-30 10:40:00,54.1,53.3,29.76,South,182,6.0,6.0,97,0.00,,,0.00,Wunderground v.1.15,2013-01-30 15:40:00,
2013-01-30 10:45:00,54.6,53.5,29.76,South,186,6.0,6.0,96,0.00,,,0.00,Wunderground v.1.15,2013-01-30 15:45:00,
2013-01-30 10:50:00,55.4,54.3,29.75,SSW,193,7.0,7.0,96,0.00,,,0.00,Wunderground v.1.15,2013-01-30 15:50:00,
2013-01-30 11:00:00,56.0,54.9,29.75,SSE,157,7.0,7.0,96,0.00,,,0.00,Wunderground v.1.15,2013-01-30 16:00:00,
2013-01-30 11:05:00,56.8,55.7,29.75,SSW,203,7.0,13.0,96,0.00,,,0.00,Wunderground v.1.15,2013-01-30 16:05:00,
2013-01-30 11:10:00,57.1,55.7,29.75,South,184,8.0,11.0,95,0.00,,,0.00,Wunderground v.1.15,2013-01-30 16:10:00,
2013-01-30 11:15:00,57.1,55.4,29.75,South,188,8.0,11.0,94,0.00,,,0.00,Wunderground v.1.15,2013-01-30 16:15:00,
2013-01-30 11:20:00,57.1,55.1,29.74,SSW,193,8.0,9.0,93,0.00,,,0.00,Wunderground v.1.15,2013-01-30 16:20:00,
2013-01-30 11:25:00,56.6,54.0,29.75,South,188,7.0,10.0,91,0.00,,,0.00,Wunderground v.1.15,2013-01-30 16:25:00,
2013-01-30 11:35:00,56.2,53.6,29.74,South,184,7.0,11.0,91,0.00,,,0.00,Wunderground v.1.15,2013-01-30 16:35:00,
2013-01-30 11:39:00,56.2,53.6,29.73,SSE,149,7.0,7.0,91,0.00,,,0.00,Wunderground v.1.15,2013-01-30 16:39:00,
2013-01-30 11:45:00,55.9,53.0,29.73,South,175,7.0,7.0,90,0.00,,,0.00,Wunderground v.1.15,2013-01-30 16:45:00,
2013-01-30 11:50:00,55.7,52.8,29.73,SSW,193,6.0,6.0,90,0.00,,,0.00,Wunderground v.1.15,2013-01-30 16:50:00,
2013-01-30 11:55:00,55.9,53.3,29.72,South,182,6.0,6.0,91,0.00,,,0.00,Wunderground v.1.15,2013-01-30 16:55:00,
2013-01-30 12:00:00,56.0,53.4,29.72,SSW,198,7.0,7.0,91,0.00,,,0.00,Wunderground v.1.15,2013-01-30 17:00:00,
2013-01-30 12:09:00,56.2,53.6,29.71,South,182,6.0,9.0,91,0.00,,,0.00,Wunderground v.1.15,2013-01-30 17:09:00,
2013-01-30 12:14:00,56.7,54.1,29.70,SSW,193,7.0,9.0,91,0.00,,,0.00,Wunderground v.1.15,2013-01-30 17:14:00,
2013-01-30 12:20:00,56.9,54.3,29.71,South,185,7.0,7.0,91,0.00,,,0.00,Wunderground v.1.15,2013-01-30 17:20:00,
2013-01-30 12:25:00,56.8,53.9,29.70,South,184,6.0,7.0,90,0.00,,,0.00,Wunderground v.1.15,2013-01-30 17:25:00,
2013-01-30 12:30:00,56.6,53.7,29.70,South,185,6.0,9.0,90,0.00,,,0.00,Wunderground v.1.15,2013-01-30 17:30:00,
2013-01-30 12:35:00,56.7,53.8,29.69,South,169,7.0,9.0,90,0.00,,,0.00,Wunderground v.1.15,2013-01-30 17:35:00,
2013-01-30 12:40:00,57.0,54.1,29.68,SE,134,7.0,7.0,90,0.00,,,0.00,Wunderground v.1.15,2013-01-30 17:40:00,
2013-01-30 12:49:00,56.8,53.6,29.67,South,184,7.0,7.0,89,0.00,,,0.00,Wunderground v.1.15,2013-01-30 17:49:00,
2013-01-30 12:54:00,56.5,53.0,29.67,SSW,203,7.0,8.0,88,0.00,,,0.00,Wunderground v.1.15,2013-01-30 17:54:00,
2013-01-30 13:00:00,56.1,52.6,29.67,SSE,164,7.0,7.0,88,0.00,,,0.00,Wunderground v.1.15,2013-01-30 18:00:00,
2013-01-30 13:05:00,55.9,52.4,29.66,SSW,203,8.0,9.0,88,0.00,,,0.00,Wunderground v.1.15,2013-01-30 18:05:00,
2013-01-30 13:10:00,55.5,52.3,29.67,South,188,8.0,13.0,89,0.00,,,0.00,Wunderground v.1.15,2013-01-30 18:10:00,
2013-01-30 13:15:00,55.1,51.9,29.66,SSE,149,8.0,13.0,89,0.00,,,0.00,Wunderground v.1.15,2013-01-30 18:15:00,
2013-01-30 13:24:00,54.3,51.1,29.66,SSE,166,7.0,8.0,89,0.00,,,0.00,Wunderground v.1.15,2013-01-30 18:24:00,
2013-01-30 13:29:00,53.9,50.7,29.66,South,178,7.0,7.0,89,0.00,,,0.00,Wunderground v.1.15,2013-01-30 18:29:00,
2013-01-30 13:35:00,53.4,50.5,29.65,South,174,8.0,8.0,90,0.00,,,0.00,Wunderground v.1.15,2013-01-30 18:35:00,
2013-01-30 13:40:00,53.0,50.1,29.65,SSE,152,8.0,8.0,90,0.00,,,0.00,Wunderground v.1.15,2013-01-30 18:40:00,
2013-01-30 13:45:00,52.4,49.6,29.65,SSW,193,7.0,13.0,90,0.00,,,0.00,Wunderground v.1.15,2013-01-30 18:45:00,
2013-01-30 13:50:00,52.1,49.6,29.65,SSE,162,8.0,9.0,91,0.00,,,0.00,Wunderground v.1.15,2013-01-30 18:50:00,
2013-01-30 13:59:00,52.3,50.0,29.65,SSE,161,8.0,8.0,92,0.00,,,0.00,Wunderground v.1.15,2013-01-30 18:59:00,
2013-01-30 14:05:00,52.2,49.9,29.65,South,183,7.0,8.0,92,0.00,,,0.00,Wunderground v.1.15,2013-01-30 19:05:00,
2013-01-30 14:10:00,52.1,49.8,29.65,SSE,165,7.0,8.0,92,0.00,,,0.00,Wunderground v.1.15,2013-01-30 19:10:00,
2013-01-30 14:15:00,52.0,49.7,29.65,South,176,7.0,8.0,92,0.00,,,0.00,Wunderground v.1.15,2013-01-30 19:15:00,
2013-01-30 14:20:00,51.8,49.5,29.65,SSE,158,6.0,7.0,92,0.00,,,0.00,Wunderground v.1.15,2013-01-30 19:20:00,
2013-01-30 14:29:00,51.4,49.2,29.65,SE,138,7.0,7.0,92,0.00,,,0.00,Wunderground v.1.15,2013-01-30 19:29:00,
2013-01-30 14:34:00,51.5,49.3,29.65,South,179,7.0,8.0,92,0.00,,,0.00,Wunderground v.1.15,2013-01-30 19:34:00,
2013-01-30 14:40:00,51.5,49.3,29.65,SSW,193,6.0,7.0,92,0.00,,,0.00,Wunderground v.1.15,2013-01-30 19:40:00,
2013-01-30 14:45:00,51.5,49.3,29.64,South,186,7.0,8.0,92,0.00,,,0.00,Wunderground v.1.15,2013-01-30 19:45:00,
2013-01-30 14:50:00,51.4,49.2,29.64,South,177,7.0,7.0,92,0.00,,,0.00,Wunderground v.1.15,2013-01-30 19:50:00,
2013-01-30 14:55:00,51.5,49.3,29.63,SE,144,6.0,7.0,92,0.00,,,0.00,Wunderground v.1.15,2013-01-30 19:55:00,
2013-01-30 15:00:00,51.6,49.4,29.63,South,185,6.0,7.0,92,0.00,,,0.00,Wunderground v.1.15,2013-01-30 20:00:00,
2013-01-30 15:09:00,52.1,49.8,29.62,South,184,6.0,6.0,92,0.00,,,0.00,Wunderground v.1.15,2013-01-30 20:09:00,
2013-01-30 15:15:00,52.5,49.9,29.61,SSE,153,8.0,15.0,91,0.00,,,0.00,Wunderground v.1.15,2013-01-30 20:15:00,
2013-01-30 15:20:00,52.9,50.3,29.62,SSW,193,8.0,8.0,91,0.00,,,0.00,Wunderground v.1.15,2013-01-30 20:20:00,
2013-01-30 15:25:00,53.1,50.5,29.63,SSW,198,8.0,8.0,91,0.00,,,0.00,Wunderground v.1.15,2013-01-30 20:25:00,
2013-01-30 15:30:00,52.9,50.0,29.63,SSW,193,6.0,6.0,90,0.00,,,0.00,Wunderground v.1.15,2013-01-30 20:30:00,
2013-01-30 15:35:00,52.9,50.0,29.62,South,178,5.0,6.0,90,0.00,,,0.00,Wunderground v.1.15,2013-01-30 20:35:00,
2013-01-30 15:44:00,52.7,49.5,29.62,SSE,165,7.0,8.0,89,0.00,,,0.00,Wunderground v.1.15,2013-01-30 20:44:00,
2013-01-30 15:49:00,52.4,49.3,29.62,ESE,117,7.0,7.0,89,0.00,,,0.00,Wunderground v.1.15,2013-01-30 20:49:00,
2013-01-30 15:55:00,52.2,49.4,29.62,South,182,7.0,7.0,90,0.00,,,0.00,Wunderground v.1.15,2013-01-30 20:55:00,
2013-01-30 16:00:00,52.3,49.5,29.62,South,176,7.0,11.0,90,0.00,,,0.00,Wunderground v.1.15,2013-01-30 21:00:00,
2013-01-30 16:05:00,52.3,49.5,29.61,South,184,7.0,11.0,90,0.00,,,0.00,Wunderground v.1.15,2013-01-30 21:05:00,
2013-01-30 16:10:00,52.2,49.4,29.61,SE,142,7.0,7.0,90,0.00,,,0.00,Wunderground v.1.15,2013-01-30 21:10:00,
2013-01-30 16:20:00,52.0,49.2,29.60,SSE,167,6.0,6.0,90,0.00,,,0.00,Wunderground v.1.15,2013-01-30 21:20:00,
2013-01-30 16:30:00,52.3,49.8,29.60,SSW,212,6.0,6.0,91,0.00,,,0.00,Wunderground v.1.15,2013-01-30 21:30:00,
2013-01-30 16:35:00,52.4,49.8,29.60,South,184,6.0,8.0,91,0.00,,,0.00,Wunderground v.1.15,2013-01-30 21:35:00,
2013-01-30 16:40:00,52.4,49.6,29.60,South,176,7.0,7.0,90,0.00,,,0.00,Wunderground v.1.15,2013-01-30 21:40:00,
2013-01-30 16:45:00,52.4,49.6,29.60,SSW,193,7.0,7.0,90,0.00,,,0.00,Wunderground v.1.15,2013-01-30 21:45:00,
2013-01-30 16:50:00,52.4,49.8,29.60,SSE,153,7.0,9.0,91,0.00,,,0.00,Wunderground v.1.15,2013-01-30 21:50:00,
2013-01-30 16:55:00,52.5,49.9,29.60,South,185,6.0,9.0,91,0.00,,,0.00,Wunderground v.1.15,2013-01-30 21:55:00,
2013-01-30 17:04:00,52.3,49.5,29.60,SSE,165,7.0,8.0,90,0.00,,,0.00,Wunderground v.1.15,2013-01-30 22:04:00,
2013-01-30 17:10:00,52.0,48.9,29.59,South,184,7.0,8.0,89,0.00,,,0.00,Wunderground v.1.15,2013-01-30 22:10:00,
2013-01-30 17:15:00,51.6,48.5,29.59,SSW,193,7.0,8.0,89,0.00,,,0.00,Wunderground v.1.15,2013-01-30 22:15:00,
2013-01-30 17:20:00,51.3,48.2,29.59,South,186,7.0,7.0,89,0.00,,,0.00,Wunderground v.1.15,2013-01-30 22:20:00,
2013-01-30 17:25:00,51.0,48.2,29.58,South,188,7.0,8.0,90,0.00,,,0.00,Wunderground v.1.15,2013-01-30 22:25:00,
2013-01-30 17:30:00,50.6,47.5,29.58,SSE,161,7.0,7.0,89,0.00,,,0.00,Wunderground v.1.15,2013-01-30 22:30:00,
2013-01-30 17:35:00,50.3,47.5,29.58,SSW,193,6.0,7.0,90,0.00,,,0.00,Wunderground v.1.15,2013-01-30 22:35:00,
2013-01-30 17:45:00,50.2,47.7,29.59,SE,141,6.0,7.0,91,0.00,,,0.00,Wunderground v.1.15,2013-01-30 22:45:00,
2013-01-30 17:50:00,50.4,47.9,29.58,South,182,6.0,10.0,91,0.00,,,0.00,Wunderground v.1.15,2013-01-30 22:50:00,
2013-01-30 17:55:00,50.4,48.2,29.57,South,173,6.0,10.0,92,0.00,,,0.00,Wunderground v.1.15,2013-01-30 22:55:00,
2013-01-30 18:00:00,50.5,48.3,29.57,South,178,5.0,5.0,92,0.00,,,0.00,Wunderground v.1.15,2013-01-30 23:00:00,
2013-01-30 18:05:00,50.5,48.0,29.57,South,175,5.0,6.0,91,0.00,,,0.00,Wunderground v.1.15,2013-01-30 23:05:00,
2013-01-30 18:10:00,50.3,47.8,29.56,South,173,7.0,7.0,91,0.00,,,0.00,Wunderground v.1.15,2013-01-30 23:10:00,
2013-01-30 18:20:00,49.9,47.4,29.55,South,174,7.0,10.0,91,0.00,,,0.00,Wunderground v.1.15,2013-01-30 23:20:00,
2013-01-30 18:25:00,49.8,47.3,29.55,SE,139,7.0,10.0,91,0.00,,,0.00,Wunderground v.1.15,2013-01-30 23:25:00,
2013-01-30 18:30:00,49.6,47.1,29.55,South,188,8.0,11.0,91,0.00,,,0.00,Wunderground v.1.15,2013-01-30 23:30:00,
2013-01-30 18:35:00,49.4,46.9,29.55,SSW,193,8.0,11.0,91,0.00,,,0.00,Wunderground v.1.15,2013-01-30 23:35:00,
2013-01-30 18:40:00,49.2,46.7,29.54,South,178,8.0,11.0,91,0.00,,,0.00,Wunderground v.1.15,2013-01-30 23:40:00,
2013-01-30 18:45:00,49.0,46.8,29.54,SSE,168,8.0,11.0,92,0.00,,,0.00,Wunderground v.1.15,2013-01-30 23:45:00,
2013-01-30 18:54:00,48.7,46.5,29.53,South,173,8.0,8.0,92,0.00,,,0.00,Wunderground v.1.15,2013-01-30 23:54:00,
2013-01-30 19:00:00,48.7,46.5,29.53,SSE,166,7.0,7.0,92,0.00,,,0.00,Wunderground v.1.15,2013-01-31 00:00:00,
2013-01-30 19:05:00,48.8,46.9,29.53,WSW,256,7.0,7.0,93,0.00,,,0.00,Wunderground v.1.15,2013-01-31 00:05:00,
2013-01-30 19:10:00,48.9,47.0,29.52,SW,232,7.0,11.0,93,0.00,,,0.00,Wunderground v.1.15,2013-01-31 00:10:00,
2013-01-30 19:15:00,48.8,46.9,29.52,SSW,193,7.0,11.0,93,0.00,,,0.00,Wunderground v.1.15,2013-01-31 00:15:00,
2013-01-30 19:20:00,48.8,46.9,29.51,SSW,193,8.0,10.0,93,0.00,,,0.00,Wunderground v.1.15,2013-01-31 00:20:00,
2013-01-30 19:25:00,48.8,46.9,29.51,SE,140,8.0,10.0,93,0.00,,,0.00,Wunderground v.1.15,2013-01-31 00:25:00,
2013-01-30 19:35:00,49.3,47.4,29.50,South,184,9.0,9.0,93,0.00,,,0.00,Wunderground v.1.15,2013-01-31 00:35:00,
2013-01-30 19:40:00,49.3,47.4,29.49,South,178,8.0,11.0,93,0.00,,,0.00,Wunderground v.1.15,2013-01-31 00:40:00,
2013-01-30 19:45:00,49.4,47.5,29.49,SSE,164,9.0,12.0,93,0.00,,,0.00,Wunderground v.1.15,2013-01-31 00:45:00,
2013-01-30 19:50:00,49.5,47.6,29.49,South,181,10.0,12.0,93,0.00,,,0.00,Wunderground v.1.15,2013-01-31 00:50:00,
2013-01-30 19:55:00,49.4,47.5,29.49,SSW,203,10.0,14.0,93,0.00,,,0.00,Wunderground v.1.15,2013-01-31 00:55:00,
2013-01-30 20:00:00,49.4,47.5,29.49,South,184,10.0,11.0,93,0.00,,,0.00,Wunderground v.1.15,2013-01-31 01:00:00,
2013-01-30 20:10:00,48.9,47.0,29.48,South,173,9.0,14.0,93,0.00,,,0.00,Wunderground v.1.15,2013-01-31 01:10:00,
2013-01-30 20:15:00,48.7,46.8,29.48,South,180,9.0,14.0,93,0.00,,,0.00,Wunderground v.1.15,2013-01-31 01:15:00,
2013-01-30 20:20:00,48.5,46.9,29.48,South,184,9.0,9.0,94,0.00,,,0.00,Wunderground v.1.15,2013-01-31 01:20:00,
2013-01-30 20:25:00,48.5,46.9,29.48,SSE,165,8.0,9.0,94,0.00,,,0.00,Wunderground v.1.15,2013-01-31 01:25:00,
2013-01-30 20:30:00,48.4,46.8,29.47,South,177,7.0,14.0,94,0.00,,,0.00,Wunderground v.1.15,2013-01-31 01:30:00,
2013-01-30 20:35:00,48.4,46.8,29.47,SSE,161,8.0,14.0,94,0.00,,,0.00,Wunderground v.1.15,2013-01-31 01:35:00,
2013-01-30 20:40:00,48.4,46.8,29.47,South,177,8.0,9.0,94,0.00,,,0.00,Wunderground v.1.15,2013-01-31 01:40:00,
2013-01-30 20:50:00,48.3,46.7,29.46,South,171,8.0,14.0,94,0.00,,,0.00,Wunderground v.1.15,2013-01-31 01:50:00,
2013-01-30 20:55:00,48.3,46.7,29.46,South,182,8.0,14.0,94,0.00,,,0.00,Wunderground v.1.15,2013-01-31 01:55:00,
2013-01-30 21:00:00,48.5,47.1,29.45,South,180,8.0,18.0,95,0.00,,,0.01,Wunderground v.1.15,2013-01-31 02:00:00,
2013-01-30 21:05:00,48.6,47.2,29.46,SSW,211,8.0,18.0,95,0.00,,,0.01,Wunderground v.1.15,2013-01-31 02:05:00,
2013-01-30 21:10:00,48.5,47.1,29.46,South,174,8.0,8.0,95,0.00,,,0.00,Wunderground v.1.15,2013-01-31 02:10:00,
2013-01-30 21:15:00,48.5,47.1,29.47,West,276,6.0,8.0,95,0.00,,,0.00,Wunderground v.1.15,2013-01-31 02:15:00,
2013-01-30 21:25:00,49.2,47.8,29.48,South,179,4.0,7.0,95,0.00,,,0.00,Wunderground v.1.15,2013-01-31 02:25:00,
2013-01-30 21:29:00,50.2,49.1,29.46,South,186,4.0,4.0,96,0.00,,,0.00,Wunderground v.1.15,2013-01-31 02:29:00,
2013-01-30 21:35:00,51.2,50.1,29.46,South,184,5.0,7.0,96,0.00,,,0.00,Wunderground v.1.15,2013-01-31 02:35:00,
2013-01-30 21:40:00,51.5,50.4,29.45,South,187,5.0,5.0,96,0.00,,,0.00,Wunderground v.1.15,2013-01-31 02:40:00,
2013-01-30 21:45:00,51.4,50.0,29.45,SSW,193,4.0,5.0,95,0.00,,,0.00,Wunderground v.1.15,2013-01-31 02:45:00,
2013-01-30 21:50:00,51.3,49.9,29.44,SSW,198,5.0,5.0,95,0.00,,,0.00,Wunderground v.1.15,2013-01-31 02:50:00,
2013-01-30 21:55:00,51.2,49.8,29.44,SW,221,5.0,5.0,95,0.00,,,0.00,Wunderground v.1.15,2013-01-31 02:55:00,
2013-01-30 22:04:00,51.0,49.6,29.42,SSW,210,4.0,5.0,95,0.00,,,0.01,Wunderground v.1.15,2013-01-31 03:04:00,
2013-01-30 22:10:00,50.8,49.4,29.40,South,176,5.0,6.0,95,0.19,,,0.03,Wunderground v.1.15,2013-01-31 03:10:00,
2013-01-30 22:15:00,50.5,49.1,29.40,SSW,203,7.0,8.0,95,0.18,,,0.04,Wunderground v.1.15,2013-01-31 03:15:00,
2013-01-30 22:20:00,50.1,48.7,29.39,South,176,7.0,7.0,95,0.12,,,0.05,Wunderground v.1.15,2013-01-31 03:20:00,
2013-01-30 22:25:00,49.6,48.2,29.39,SSW,203,8.0,9.0,95,0.08,,,0.05,Wunderground v.1.15,2013-01-31 03:25:00,
2013-01-30 22:30:00,49.2,47.8,29.38,South,186,8.0,8.0,95,0.07,,,0.06,Wunderground v.1.15,2013-01-31 03:30:00,
2013-01-30 22:39:00,49.0,47.6,29.38,SSW,193,8.0,8.0,95,0.07,,,0.07,Wunderground v.1.15,2013-01-31 03:39:00,
2013-01-30 22:44:00,49.0,47.6,29.37,South,180,8.0,8.0,95,0.08,,,0.08,Wunderground v.1.15,2013-01-31 03:44:00,
2013-01-30 22:50:00,49.1,47.7,29.36,SSW,198,8.0,8.0,95,0.08,,,0.09,Wunderground v.1.15,2013-01-31 03:50:00,
2013-01-30 22:55:00,49.2,48.1,29.36,SSW,203,8.0,14.0,96,0.08,,,0.09,Wunderground v.1.15,2013-01-31 03:55:00,
2013-01-30 23:00:00,49.3,48.2,29.35,South,175,9.0,9.0,96,0.05,,,0.09,Wunderground v.1.15,2013-01-31 04:00:00,
2013-01-30 23:05:00,49.4,48.3,29.34,South,169,9.0,12.0,96,0.04,,,0.09,Wunderground v.1.15,2013-01-31 04:05:00,
2013-01-30 23:14:00,49.5,48.4,29.33,SSW,193,10.0,14.0,96,0.00,,,0.09,Wunderground v.1.15,2013-01-31 04:14:00,
2013-01-30 23:19:00,49.5,48.4,29.33,SSW,198,10.0,10.0,96,0.00,,,0.09,Wunderground v.1.15,2013-01-31 04:19:00,
2013-01-30 23:25:00,49.6,48.5,29.32,South,178,10.0,13.0,96,0.00,,,0.09,Wunderground v.1.15,2013-01-31 04:25:00,
2013-01-30 23:30:00,49.6,48.5,29.32,SSW,203,11.0,11.0,96,0.00,,,0.09,Wunderground v.1.15,2013-01-31 04:30:00,
2013-01-30 23:35:00,49.6,48.5,29.30,South,173,10.0,11.0,96,0.00,,,0.10,Wunderground v.1.15,2013-01-31 04:35:00,
2013-01-30 23:40:00,49.6,48.5,29.29,SSW,193,9.0,9.0,96,0.14,,,0.11,Wunderground v.1.15,2013-01-31 04:40:00,
2013-01-30 23:50:00,49.9,48.8,29.27,SSE,165,9.0,9.0,96,0.09,,,0.13,Wunderground v.1.15,2013-01-31 04:50:00,